Time;durP1;ratioP1;P1;durP2;ratioP2;P2;SDS_P1;SDS_P2;PMS_P1;PMS_P2;Temp;Humidity;BMP_temperature;BMP_pressure;BME280_temperature;BME280_humidity;BME280_pressure;Samples;Min_cycle;Max_cycle;Signal;HPM_P1;HPM_P2
2023/04/23 00:08:21;;;;;;;10.50;2.83;;;11.10;99.90;;;;;;20743897;28;20034;-74
2023/04/23 00:18:22;;;;;;;4.22;2.50;;;11.10;99.90;;;;;;20743080;28;20113;-74
2023/04/23 00:28:23;;;;;;;4.97;2.00;;;11.10;99.90;;;;;;20673640;28;20070;-74
2023/04/23 00:38:25;;;;;;;3.80;1.53;;;11.10;99.90;;;;;;20677529;28;20489;-74
2023/04/23 00:48:27;;;;;;;5.45;1.45;;;11.10;99.90;;;;;;20680590;28;20034;-75
2023/04/23 00:58:29;;;;;;;3.90;1.42;;;11.20;99.90;;;;;;20729082;28;20718;-74
2023/04/23 01:08:31;;;;;;;1.43;1.27;;;11.20;99.90;;;;;;20741085;28;20512;-74
2023/04/23 01:18:33;;;;;;;4.63;1.92;;;11.10;99.90;;;;;;20746341;28;20295;-73
2023/04/23 01:28:34;;;;;;;3.20;2.20;;;10.90;99.90;;;;;;20756476;28;20069;-73
2023/04/23 01:38:36;;;;;;;8.13;2.28;;;10.80;99.90;;;;;;20754221;28;20401;-73
2023/04/23 01:48:37;;;;;;;2.97;2.38;;;10.70;99.90;;;;;;20755691;28;20038;-73
2023/04/23 01:58:38;;;;;;;3.00;2.20;;;10.50;99.90;;;;;;20753014;28;20030;-73
2023/04/23 02:08:40;;;;;;;3.43;2.20;;;10.50;99.90;;;;;;20751032;28;20296;-73
2023/04/23 02:18:41;;;;;;;3.22;2.28;;;10.40;99.90;;;;;;20749721;28;20037;-73
2023/04/23 02:28:42;;;;;;;3.73;2.50;;;10.40;99.90;;;;;;20750066;28;20030;-73
2023/04/23 02:38:44;;;;;;;4.93;2.50;;;10.40;99.90;;;;;;20750770;28;20057;-73
2023/04/23 02:48:45;;;;;;;4.10;2.55;;;10.40;99.90;;;;;;20749228;28;20509;-74
2023/04/23 02:58:46;;;;;;;7.63;3.20;;;10.40;99.90;;;;;;20748185;28;20033;-74
2023/04/23 03:08:46;;;;;;;4.67;2.93;;;10.30;99.90;;;;;;20746060;28;20046;-74
2023/04/23 03:18:47;;;;;;;7.13;2.17;;;10.30;99.90;;;;;;20745853;28;20092;-74
2023/04/23 03:28:48;;;;;;;4.37;2.53;;;10.30;99.90;;;;;;20744735;28;20040;-74
2023/04/23 03:38:49;;;;;;;5.30;2.70;;;10.30;99.90;;;;;;20745105;28;20036;-74
2023/04/23 03:48:52;;;;;;;4.35;2.55;;;10.10;99.90;;;;;;20744029;28;20497;-74
2023/04/23 03:58:59;;;;;;;7.70;2.92;;;10.10;99.90;;;;;;20743290;28;20058;-74
2023/04/23 04:09:00;;;;;;;5.97;4.23;;;9.90;99.90;;;;;;20742798;28;20045;-74
2023/04/23 04:19:02;;;;;;;4.43;2.85;;;9.90;99.90;;;;;;20742499;28;20029;-75
2023/04/23 04:29:03;;;;;;;4.63;3.00;;;9.80;99.90;;;;;;20745906;28;20030;-75
2023/04/23 04:39:04;;;;;;;6.90;3.47;;;9.80;99.90;;;;;;20742541;28;20030;-74
2023/04/23 04:49:11;;;;;;;8.03;3.93;;;9.70;99.90;;;;;;20742291;28;20038;-74
2023/04/23 04:59:12;;;;;;;7.10;2.85;;;9.80;99.90;;;;;;20741651;28;20036;-75
2023/04/23 05:09:13;;;;;;;5.23;2.60;;;9.80;99.90;;;;;;20756109;28;20029;-75
2023/04/23 05:19:13;;;;;;;6.30;2.93;;;9.70;99.90;;;;;;20755912;28;20022;-76
2023/04/23 05:29:18;;;;;;;5.37;3.00;;;9.80;99.90;;;;;;20755188;28;20088;-75
2023/04/23 05:39:18;;;;;;;4.80;2.78;;;9.90;99.90;;;;;;20754513;28;20113;-75
2023/04/23 05:49:19;;;;;;;5.77;2.70;;;10.10;99.90;;;;;;20754089;28;20053;-76
2023/04/23 05:59:20;;;;;;;3.50;2.70;;;10.20;99.90;;;;;;20753147;28;20034;-76
2023/04/23 06:09:21;;;;;;;;;;;10.30;99.90;;;;;;20756328;28;20037;-75
2023/04/23 06:19:25;;;;;;;5.20;3.20;;;10.60;99.90;;;;;;20749829;28;19999;-75
2023/04/23 06:29:26;;;;;;;7.22;3.40;;;11.00;99.90;;;;;;20750320;28;20042;-75
2023/04/23 06:39:31;;;;;;;3.72;2.25;;;11.30;99.90;;;;;;20747282;28;20026;-74
2023/04/23 06:49:32;;;;;;;4.90;2.00;;;11.80;99.90;;;;;;20747267;28;20049;-75
2023/04/23 06:59:33;;;;;;;33.90;22.53;;;12.90;99.90;;;;;;20747704;28;20026;-74
2023/04/23 07:09:35;;;;;;;5.40;3.15;;;13.80;99.90;;;;;;20745130;28;20060;-74
2023/04/23 07:19:36;;;;;;;5.70;3.90;;;14.00;99.90;;;;;;20737696;28;20034;-74
2023/04/23 07:29:37;;;;;;;;;;;13.70;99.90;;;;;;20744700;28;20026;-74
2023/04/23 07:39:38;;;;;;;4.67;3.10;;;14.10;99.90;;;;;;20782590;28;19924;-73
2023/04/23 07:49:38;;;;;;;6.20;3.17;;;14.90;99.90;;;;;;20746057;28;20276;-74
2023/04/23 07:59:39;;;;;;;7.23;3.70;;;15.80;99.90;;;;;;20735399;28;20120;-73
2023/04/23 08:09:41;;;;;;;3.78;2.65;;;16.50;99.90;;;;;;20749250;28;20095;-74
2023/04/23 08:19:42;;;;;;;5.25;1.98;;;17.20;99.90;;;;;;20742475;28;20033;-74
2023/04/23 08:29:42;;;;;;;3.13;2.00;;;16.90;99.90;;;;;;20743913;28;20030;-74
2023/04/23 08:39:43;;;;;;;2.83;1.57;;;17.30;99.90;;;;;;20752827;28;20444;-74
2023/04/23 08:49:45;;;;;;;1.93;1.27;;;17.10;99.90;;;;;;20759485;28;20026;-74
2023/04/23 08:59:46;;;;;;;3.53;2.10;;;17.40;99.90;;;;;;20759130;28;20066;-72
2023/04/23 09:09:47;;;;;;;6.10;2.63;;;18.60;99.90;;;;;;20757113;28;20397;-74
2023/04/23 09:19:49;;;;;;;6.77;2.47;;;18.80;99.90;;;;;;20757369;28;20042;-74
2023/04/23 09:29:54;;;;;;;3.40;2.10;;;19.20;99.90;;;;;;20757788;28;20100;-74
2023/04/23 09:39:58;;;;;;;5.80;2.28;;;18.20;99.90;;;;;;20757622;28;20034;-74
2023/04/23 09:49:59;;;;;;;6.80;1.92;;;18.40;99.90;;;;;;20753940;28;20099;-74
2023/04/23 10:00:15;;;;;;;5.25;2.53;;;18.00;99.90;;;;;;20749744;28;20030;-74
2023/04/23 10:10:19;;;;;;;10.63;4.32;;;19.60;99.90;;;;;;20741178;28;20041;-74
2023/04/23 10:20:22;;;;;;;2.65;1.92;;;20.10;99.90;;;;;;20749235;28;20084;-79
2023/04/23 10:30:23;;;;;;;6.30;2.00;;;20.60;99.90;;;;;;20744063;28;20109;-78
2023/04/23 10:40:30;;;;;;;3.60;1.80;;;20.80;99.90;;;;;;20746130;28;20022;-81
2023/04/23 10:50:35;;;;;;;2.53;1.55;;;21.30;99.90;;;;;;20755309;28;20037;-79
2023/04/23 11:00:42;;;;;;;2.95;1.67;;;21.20;99.90;;;;;;20778007;28;20049;-78
2023/04/23 11:11:00;;;;;;;3.28;1.50;;;22.80;99.90;;;;;;20766765;28;20501;-77
2023/04/23 11:21:03;;;;;;;5.38;2.33;;;21.30;99.90;;;;;;20747463;28;20060;-76
2023/04/23 11:31:04;;;;;;;13.60;4.47;;;21.50;99.90;;;;;;20746029;28;20448;-76
2023/04/23 11:41:05;;;;;;;3.60;1.60;;;20.80;99.90;;;;;;20745300;28;20125;-76
2023/04/23 11:51:06;;;;;;;7.53;2.78;;;20.80;99.90;;;;;;20744455;28;20452;-77
2023/04/23 12:01:10;;;;;;;5.03;1.45;;;20.60;99.90;;;;;;20788188;28;20087;-77
2023/04/23 12:11:11;;;;;;;5.03;1.88;;;20.40;99.90;;;;;;20824437;28;20041;-77
2023/04/23 12:21:12;;;;;;;3.60;1.67;;;20.50;99.90;;;;;;20825087;28;20026;-75
2023/04/23 12:31:17;;;;;;;;;;;20.00;99.90;;;;;;20779346;28;20070;-75
2023/04/23 12:41:18;;;;;;;3.22;1.20;;;20.50;99.90;;;;;;20738776;28;20012;-75
2023/04/23 12:51:19;;;;;;;4.30;0.90;;;20.50;99.90;;;;;;20737157;28;20608;-76
2023/04/23 13:01:20;;;;;;;2.50;1.10;;;19.70;99.90;;;;;;20736998;28;20489;-77
2023/04/23 13:11:21;;;;;;;3.67;1.50;;;19.60;99.90;;;;;;20737695;28;20126;-77
2023/04/23 13:21:22;;;;;;;;;;;19.60;99.90;;;;;;20747018;28;20030;-78
2023/04/23 13:31:23;;;;;;;3.80;0.97;;;19.30;99.90;;;;;;20761019;28;19913;-77
2023/04/23 13:41:24;;;;;;;4.93;1.20;;;19.40;99.90;;;;;;20752357;28;20030;-76
2023/04/23 13:51:25;;;;;;;1.70;0.87;;;19.70;99.90;;;;;;20758374;28;20037;-80
2023/04/23 14:01:25;;;;;;;3.97;1.80;;;19.70;99.90;;;;;;20772702;28;20076;-80
2023/04/23 14:11:26;;;;;;;5.40;1.60;;;19.40;99.90;;;;;;20775593;28;20038;-79
2023/04/23 14:21:27;;;;;;;4.13;1.50;;;19.30;99.30;;;;;;20771595;28;20053;-80
2023/04/23 14:31:29;;;;;;;2.50;1.07;;;19.30;97.20;;;;;;20770964;28;20029;-80
2023/04/23 14:41:33;;;;;;;7.88;2.67;;;19.30;96.00;;;;;;20774196;28;20030;-79
2023/04/23 14:51:34;;;;;;;10.95;6.60;;;19.60;94.50;;;;;;20767470;28;20493;-77
2023/04/23 15:01:35;;;;;;;2.17;0.93;;;19.70;99.90;;;;;;20765357;28;20037;-78
2023/04/23 15:11:37;;;;;;;8.50;4.73;;;20.10;99.90;;;;;;20764712;28;20033;-79
2023/04/23 15:21:40;;;;;;;21.02;10.00;;;19.70;99.90;;;;;;20769617;28;20041;-79
2023/04/23 15:31:41;;;;;;;9.90;5.88;;;19.50;99.40;;;;;;20763549;28;20076;-79
2023/04/23 15:41:42;;;;;;;9.37;3.27;;;19.50;97.00;;;;;;20768663;28;20021;-79
2023/04/23 15:51:43;;;;;;;1.03;0.80;;;19.00;97.10;;;;;;20759981;28;20032;-79
2023/04/23 16:01:44;;;;;;;4.83;0.73;;;18.70;99.50;;;;;;20756479;28;20113;-77
2023/04/23 16:11:45;;;;;;;4.83;1.87;;;18.00;99.90;;;;;;20750909;28;20069;-78
2023/04/23 16:21:45;;;;;;;19.30;6.97;;;17.50;99.90;;;;;;20749066;28;20030;-78
2023/04/23 16:31:46;;;;;;;2.30;1.40;;;17.80;99.90;;;;;;20751510;28;20430;-78
2023/04/23 16:41:47;;;;;;;2.40;0.77;;;17.80;99.90;;;;;;20758407;28;20026;-78
2023/04/23 16:51:48;;;;;;;1.53;0.70;;;17.50;99.90;;;;;;20755288;28;20034;-79
2023/04/23 17:01:49;;;;;;;1.50;1.00;;;17.10;99.90;;;;;;20767209;28;20026;-78
2023/04/23 17:11:49;;;;;;;6.60;1.10;;;16.90;99.90;;;;;;20782251;28;20063;-78
2023/04/23 17:21:50;;;;;;;2.27;0.80;;;16.70;99.90;;;;;;20768682;28;20032;-78
2023/04/23 17:31:51;;;;;;;2.27;0.67;;;16.50;99.90;;;;;;20759672;28;20485;-78
2023/04/23 17:41:53;;;;;;;0.83;0.33;;;16.20;99.90;;;;;;20777366;28;20087;-79
2023/04/23 17:51:54;;;;;;;4.15;2.25;;;15.00;99.90;;;;;;20774094;28;20516;-77
2023/04/23 18:01:57;;;;;;;0.77;0.40;;;14.50;99.90;;;;;;20767449;28;20120;-78
2023/04/23 18:11:59;;;;;;;1.90;0.73;;;14.00;99.90;;;;;;20769447;28;20036;-79
2023/04/23 18:22:00;;;;;;;3.40;0.52;;;13.40;99.90;;;;;;20771236;28;20492;-79
2023/04/23 18:32:03;;;;;;;0.30;0.28;;;12.70;99.90;;;;;;20773529;28;20033;-78
2023/04/23 18:42:04;;;;;;;0.45;0.40;;;12.50;99.90;;;;;;20770656;28;20030;-79
2023/04/23 18:52:04;;;;;;;1.23;0.43;;;12.50;99.90;;;;;;20768450;28;20038;-79
2023/04/23 19:02:05;;;;;;;1.53;0.40;;;12.10;99.90;;;;;;20768350;28;20034;-80
2023/04/23 19:12:06;;;;;;;1.60;0.70;;;11.90;99.90;;;;;;20767342;28;20497;-80
2023/04/23 19:22:07;;;;;;;0.77;0.50;;;11.90;99.90;;;;;;20768913;28;20030;-80
2023/04/23 19:32:08;;;;;;;5.83;0.73;;;11.90;99.90;;;;;;20761110;28;20022;-78
2023/04/23 19:42:09;;;;;;;1.80;1.10;;;11.90;99.90;;;;;;20766601;28;20034;-80
2023/04/23 19:52:14;;;;;;;;;;;11.80;99.90;;;;;;20764195;28;20034;-79
2023/04/23 20:02:15;;;;;;;1.38;0.55;;;11.70;99.90;;;;;;20762572;28;19936;-80
2023/04/23 20:12:18;;;;;;;0.57;0.57;;;11.60;99.90;;;;;;20764006;28;20037;-80
2023/04/23 20:22:19;;;;;;;1.17;0.60;;;11.60;99.90;;;;;;20765081;28;20064;-80
2023/04/23 20:32:20;;;;;;;1.20;0.70;;;11.40;99.90;;;;;;20762273;28;20113;-78
2023/04/23 20:42:21;;;;;;;3.47;0.60;;;11.30;99.90;;;;;;20763148;28;20068;-79
2023/04/23 20:52:22;;;;;;;1.03;0.80;;;11.30;99.90;;;;;;20762463;28;20037;-79
2023/04/23 21:02:23;;;;;;;6.83;2.30;;;11.40;99.90;;;;;;20758917;28;20509;-79
2023/04/23 21:12:24;;;;;;;;;;;11.30;99.90;;;;;;20762349;28;20129;-80
2023/04/23 21:22:25;;;;;;;0.90;0.63;;;11.20;99.90;;;;;;20758962;28;19913;-80
2023/04/23 21:32:25;;;;;;;1.13;0.77;;;11.40;99.90;;;;;;20758938;28;20030;-80
2023/04/23 21:42:26;;;;;;;1.57;1.03;;;11.30;99.90;;;;;;20767369;28;20038;-80
2023/04/23 21:52:27;;;;;;;5.00;1.00;;;11.30;99.90;;;;;;20773448;28;20038;-79
2023/04/23 22:02:31;;;;;;;6.47;1.10;;;11.10;99.90;;;;;;20772661;28;20451;-80
2023/04/23 22:12:32;;;;;;;5.65;1.13;;;10.80;99.90;;;;;;20775838;28;20547;-78
2023/04/23 22:22:33;;;;;;;1.73;0.93;;;10.70;99.90;;;;;;20780338;28;20030;-80
2023/04/23 22:32:35;;;;;;;5.97;1.15;;;10.70;99.90;;;;;;20769813;28;20037;-80
2023/04/23 22:42:36;;;;;;;2.05;1.00;;;10.70;99.90;;;;;;20768009;28;20033;-80
2023/04/23 22:52:37;;;;;;;2.10;1.20;;;10.80;99.90;;;;;;20768626;28;20045;-79
2023/04/23 23:02:37;;;;;;;5.40;1.37;;;10.80;99.90;;;;;;20765893;28;20061;-78
2023/04/23 23:12:39;;;;;;;7.47;1.47;;;10.30;99.90;;;;;;20771519;28;20397;-79
2023/04/23 23:22:41;;;;;;;2.72;1.15;;;10.10;99.90;;;;;;20765361;28;20070;-78
2023/04/23 23:32:42;;;;;;;6.27;1.37;;;10.00;99.90;;;;;;20765832;28;20057;-79
2023/04/23 23:42:42;;;;;;;4.43;1.17;;;10.10;99.90;;;;;;20764641;28;20038;-79
2023/04/23 23:52:43;;;;;;;2.67;1.40;;;10.00;99.90;;;;;;20764713;28;20033;-79
